Time,TemperatureF,DewpointF,PressureIn,WindDirection,WindDirectionDegrees,WindSpeedMPH,WindSpeedGustMPH,Humidity,HourlyPrecipIn,Conditions,Clouds,dailyrainin,SoftwareType,DateUTC
2013-07-23 00:04:00,71.0,70.0,29.81,East,88,1.0,3.0,97,0.01,,,0.00,weatherlink.com 1.10,2013-07-23 04:04:00,
2013-07-23 00:19:00,71.0,70.0,29.80,East,88,1.0,3.0,97,0.01,,,0.00,weatherlink.com 1.10,2013-07-23 04:19:00,
2013-07-23 00:34:00,70.9,70.0,29.79,East,88,1.0,2.0,97,0.01,,,0.00,weatherlink.com 1.10,2013-07-23 04:34:00,
2013-07-23 00:49:00,70.9,70.0,29.78,East,88,1.0,3.0,97,0.00,,,0.00,weatherlink.com 1.10,2013-07-23 04:49:00,
2013-07-23 01:04:00,70.9,70.0,29.78,East,88,2.0,3.0,97,0.00,,,0.00,weatherlink.com 1.10,2013-07-23 05:04:00,
2013-07-23 01:19:00,70.8,70.0,29.77,East,88,0.0,3.0,97,0.00,,,0.00,weatherlink.com 1.10,2013-07-23 05:19:00,
2013-07-23 01:35:00,71.0,70.0,29.76,East,88,1.0,3.0,97,0.00,,,0.00,weatherlink.com 1.10,2013-07-23 05:35:00,
2013-07-23 01:50:00,70.9,70.0,29.76,East,88,2.0,3.0,97,0.00,,,0.00,weatherlink.com 1.10,2013-07-23 05:50:00,
2013-07-23 02:05:00,71.1,70.0,29.75,East,88,1.0,2.0,97,0.00,,,0.00,weatherlink.com 1.10,2013-07-23 06:05:00,
2013-07-23 02:20:00,71.0,70.0,29.75,East,88,1.0,2.0,97,0.00,,,0.00,weatherlink.com 1.10,2013-07-23 06:20:00,
2013-07-23 02:35:00,71.2,70.0,29.74,East,88,1.0,2.0,97,0.00,,,0.00,weatherlink.com 1.10,2013-07-23 06:35:00,
2013-07-23 02:50:00,71.2,70.0,29.73,East,88,1.0,2.0,97,0.01,,,0.01,weatherlink.com 1.10,2013-07-23 06:50:00,
2013-07-23 03:05:00,71.2,70.0,29.72,East,88,1.0,3.0,97,0.01,,,0.01,weatherlink.com 1.10,2013-07-23 07:05:00,
2013-07-23 03:20:00,71.2,70.0,29.71,East,88,2.0,3.0,97,0.01,,,0.01,weatherlink.com 1.10,2013-07-23 07:20:00,
2013-07-23 03:35:00,71.2,70.0,29.71,East,88,1.0,2.0,97,0.01,,,0.01,weatherlink.com 1.10,2013-07-23 07:35:00,
2013-07-23 03:50:00,71.1,71.0,29.70,East,88,0.0,2.0,98,0.00,,,0.01,weatherlink.com 1.10,2013-07-23 07:50:00,
2013-07-23 04:05:00,71.3,70.0,29.70,East,88,1.0,2.0,97,0.00,,,0.01,weatherlink.com 1.10,2013-07-23 08:05:00,
2013-07-23 04:20:00,71.5,71.0,29.69,East,88,0.0,1.0,97,0.00,,,0.01,weatherlink.com 1.10,2013-07-23 08:20:00,
2013-07-23 04:35:00,71.6,71.0,29.69,East,88,0.0,2.0,97,0.00,,,0.01,weatherlink.com 1.10,2013-07-23 08:35:00,
2013-07-23 04:50:00,71.8,71.0,29.68,East,88,0.0,1.0,98,0.00,,,0.01,weatherlink.com 1.10,2013-07-23 08:50:00,
2013-07-23 05:05:00,72.0,71.0,29.68,East,88,0.0,1.0,97,0.00,,,0.01,weatherlink.com 1.10,2013-07-23 09:05:00,
2013-07-23 05:20:00,72.1,71.0,29.68,East,88,0.0,2.0,97,0.00,,,0.01,weatherlink.com 1.10,2013-07-23 09:20:00,
2013-07-23 05:35:00,72.4,72.0,29.67,East,88,0.0,1.0,98,0.00,,,0.01,weatherlink.com 1.10,2013-07-23 09:35:00,
2013-07-23 05:50:00,72.7,72.0,29.67,East,88,0.0,1.0,97,0.00,,,0.01,weatherlink.com 1.10,2013-07-23 09:50:00,
2013-07-23 06:05:00,72.8,72.0,29.67,East,88,0.0,1.0,97,0.00,,,0.01,weatherlink.com 1.10,2013-07-23 10:05:00,
2013-07-23 06:20:00,73.0,72.0,29.67,East,88,0.0,2.0,98,0.00,,,0.01,weatherlink.com 1.10,2013-07-23 10:20:00,
2013-07-23 06:35:00,73.0,72.0,29.66,East,88,0.0,1.0,98,0.00,,,0.01,weatherlink.com 1.10,2013-07-23 10:35:00,
2013-07-23 06:50:00,73.4,73.0,29.66,East,88,0.0,1.0,97,0.00,,,0.01,weatherlink.com 1.10,2013-07-23 10:50:00,
2013-07-23 07:05:00,73.6,73.0,29.65,East,88,0.0,1.0,97,0.00,,,0.01,weatherlink.com 1.10,2013-07-23 11:05:00,
2013-07-23 07:20:00,73.9,73.0,29.65,East,88,0.0,1.0,98,0.00,,,0.01,weatherlink.com 1.10,2013-07-23 11:20:00,
2013-07-23 07:35:00,73.9,73.0,29.65,East,88,0.0,2.0,98,0.00,,,0.01,weatherlink.com 1.10,2013-07-23 11:35:00,
2013-07-23 07:50:00,74.0,73.0,29.64,SE,124,0.0,2.0,98,0.00,,,0.01,weatherlink.com 1.10,2013-07-23 11:50:00,
2013-07-23 08:05:00,74.3,73.0,29.64,SSE,158,0.0,5.0,97,0.00,,,0.01,weatherlink.com 1.10,2013-07-23 12:05:00,
2013-07-23 08:20:00,74.5,74.0,29.63,South,182,1.0,5.0,98,0.00,,,0.01,weatherlink.com 1.10,2013-07-23 12:20:00,
2013-07-23 08:35:00,74.6,74.0,29.63,South,182,0.0,2.0,98,0.00,,,0.01,weatherlink.com 1.10,2013-07-23 12:35:00,
2013-07-23 08:50:00,74.7,74.0,29.63,SSW,202,0.0,6.0,98,0.00,,,0.01,weatherlink.com 1.10,2013-07-23 12:50:00,
2013-07-23 09:05:00,74.9,74.0,29.62,SSW,202,0.0,6.0,97,0.00,,,0.01,weatherlink.com 1.10,2013-07-23 13:05:00,
2013-07-23 09:20:00,74.8,74.0,29.61,South,175,0.0,4.0,98,0.00,,,0.01,weatherlink.com 1.10,2013-07-23 13:20:00,
2013-07-23 09:35:00,74.7,74.0,29.61,SSW,205,0.0,7.0,98,0.00,,,0.01,weatherlink.com 1.10,2013-07-23 13:35:00,
2013-07-23 09:50:00,74.7,74.0,29.60,South,190,0.0,9.0,98,0.00,,,0.01,weatherlink.com 1.10,2013-07-23 13:50:00,
2013-07-23 10:06:00,75.0,74.0,29.60,SW,214,0.0,5.0,97,0.00,,,0.01,weatherlink.com 1.10,2013-07-23 14:06:00,
2013-07-23 10:21:00,75.8,75.0,29.59,South,189,0.0,6.0,98,0.00,,,0.01,weatherlink.com 1.10,2013-07-23 14:21:00,
2013-07-23 10:36:00,75.9,75.0,29.60,SW,227,0.0,7.0,98,0.00,,,0.01,weatherlink.com 1.10,2013-07-23 14:36:00,
2013-07-23 10:51:00,75.9,75.0,29.60,SW,219,1.0,4.0,98,0.00,,,0.01,weatherlink.com 1.10,2013-07-23 14:51:00,
2013-07-23 11:06:00,76.0,75.0,29.60,South,181,6.0,6.0,97,0.00,,,0.01,weatherlink.com 1.10,2013-07-23 15:06:00,
2013-07-23 11:21:00,76.0,75.0,29.59,ESE,118,0.0,4.0,97,0.00,,,0.01,weatherlink.com 1.10,2013-07-23 15:21:00,
2013-07-23 11:36:00,76.0,75.0,29.59,SW,233,3.0,10.0,97,0.00,,,0.01,weatherlink.com 1.10,2013-07-23 15:36:00,
2013-07-23 11:51:00,76.5,76.0,29.59,SSW,196,3.0,8.0,97,0.00,,,0.01,weatherlink.com 1.10,2013-07-23 15:51:00,
2013-07-23 12:06:00,76.9,76.0,29.58,South,188,7.0,9.0,97,0.00,,,0.01,weatherlink.com 1.10,2013-07-23 16:06:00,
2013-07-23 12:21:00,77.2,76.0,29.58,South,182,2.0,10.0,95,0.00,,,0.01,weatherlink.com 1.10,2013-07-23 16:21:00,
2013-07-23 12:36:00,78.3,77.0,29.57,SW,224,1.0,10.0,94,0.00,,,0.01,weatherlink.com 1.10,2013-07-23 16:36:00,
2013-07-23 12:51:00,79.1,76.0,29.57,SSE,148,2.0,12.0,91,0.00,,,0.01,weatherlink.com 1.10,2013-07-23 16:51:00,
2013-07-23 13:06:00,79.6,77.0,29.56,SSW,205,0.0,13.0,90,0.00,,,0.01,weatherlink.com 1.10,2013-07-23 17:06:00,
2013-07-23 13:21:00,80.5,77.0,29.55,SW,215,1.0,8.0,89,0.00,,,0.01,weatherlink.com 1.10,2013-07-23 17:21:00,
2013-07-23 13:36:00,80.9,77.0,29.55,SSW,213,7.0,10.0,87,0.00,,,0.01,weatherlink.com 1.10,2013-07-23 17:36:00,
2013-07-23 13:51:00,81.9,77.0,29.55,SW,234,6.0,10.0,85,0.00,,,0.01,weatherlink.com 1.10,2013-07-23 17:51:00,
2013-07-23 14:06:00,81.6,76.0,29.54,SSW,213,0.0,16.0,83,0.00,,,0.01,weatherlink.com 1.10,2013-07-23 18:06:00,
2013-07-23 14:21:00,82.5,76.0,29.53,SSW,209,2.0,8.0,81,0.00,,,0.01,weatherlink.com 1.10,2013-07-23 18:21:00,
2013-07-23 14:36:00,82.0,76.0,29.54,SSE,162,8.0,12.0,82,0.00,,,0.01,weatherlink.com 1.10,2013-07-23 18:36:00,
2013-07-23 14:51:00,83.1,76.0,29.53,WSW,242,8.0,9.0,80,0.00,,,0.01,weatherlink.com 1.10,2013-07-23 18:51:00,
2013-07-23 15:06:00,82.7,76.0,29.53,WSW,241,3.0,13.0,80,0.00,,,0.01,weatherlink.com 1.10,2013-07-23 19:06:00,
2013-07-23 15:21:00,82.3,75.0,29.53,South,175,8.0,8.0,79,0.00,,,0.01,weatherlink.com 1.10,2013-07-23 19:21:00,
2013-07-23 15:36:00,81.9,76.0,29.53,ESE,123,2.0,8.0,81,0.00,,,0.01,weatherlink.com 1.10,2013-07-23 19:36:00,
2013-07-23 15:51:00,81.3,74.0,29.53,SSW,206,1.0,9.0,79,0.00,,,0.01,weatherlink.com 1.10,2013-07-23 19:51:00,
2013-07-23 16:21:00,80.8,75.0,29.54,South,177,1.0,10.0,81,0.00,,,0.01,weatherlink.com 1.10,2013-07-23 20:21:00,
2013-07-23 16:36:00,79.9,74.0,29.54,West,277,0.0,12.0,82,0.00,,,0.01,weatherlink.com 1.10,2013-07-23 20:36:00,
2013-07-23 16:51:00,79.0,74.0,29.53,WNW,286,0.0,7.0,85,0.00,,,0.01,weatherlink.com 1.10,2013-07-23 20:51:00,
2013-07-23 17:06:00,79.4,75.0,29.52,SW,214,3.0,7.0,85,0.00,,,0.01,weatherlink.com 1.10,2013-07-23 21:06:00,
2013-07-23 17:21:00,80.8,75.0,29.52,SW,232,0.0,6.0,83,0.00,,,0.01,weatherlink.com 1.10,2013-07-23 21:21:00,
2013-07-23 17:36:00,81.6,76.0,29.51,SW,223,1.0,7.0,82,0.00,,,0.01,weatherlink.com 1.10,2013-07-23 21:36:00,
2013-07-23 17:51:00,81.3,75.0,29.52,SW,223,0.0,9.0,81,0.00,,,0.01,weatherlink.com 1.10,2013-07-23 21:51:00,
2013-07-23 18:06:00,80.3,75.0,29.52,SW,217,2.0,7.0,83,0.00,,,0.01,weatherlink.com 1.10,2013-07-23 22:06:00,
2013-07-23 18:21:00,79.4,74.0,29.52,SW,234,1.0,8.0,84,0.00,,,0.01,weatherlink.com 1.10,2013-07-23 22:21:00,
2013-07-23 18:36:00,78.7,74.0,29.53,SW,218,3.0,6.0,86,0.00,,,0.01,weatherlink.com 1.10,2013-07-23 22:36:00,
2013-07-23 18:51:00,78.7,75.0,29.54,WSW,242,0.0,3.0,87,0.00,,,0.01,weatherlink.com 1.10,2013-07-23 22:51:00,
2013-07-23 19:06:00,78.2,74.0,29.53,SW,217,1.0,4.0,87,0.00,,,0.01,weatherlink.com 1.10,2013-07-23 23:06:00,
2013-07-23 19:36:00,77.1,74.0,29.54,SW,221,0.0,3.0,90,0.00,,,0.01,weatherlink.com 1.10,2013-07-23 23:36:00,
2013-07-23 19:51:00,76.6,73.0,29.55,WSW,237,1.0,1.0,89,0.00,,,0.01,weatherlink.com 1.10,2013-07-23 23:51:00,
2013-07-23 20:06:00,75.9,72.0,29.55,SW,232,0.0,1.0,87,0.00,,,0.01,weatherlink.com 1.10,2013-07-24 00:06:00,
2013-07-23 20:21:00,75.4,71.0,29.55,SW,232,0.0,0.0,87,0.00,,,0.01,weatherlink.com 1.10,2013-07-24 00:21:00,
2013-07-23 20:36:00,74.9,72.0,29.54,SW,232,0.0,0.0,89,0.00,,,0.01,weatherlink.com 1.10,2013-07-24 00:36:00,
2013-07-23 20:51:00,74.4,71.0,29.54,SW,232,0.0,0.0,90,0.00,,,0.01,weatherlink.com 1.10,2013-07-24 00:51:00,
2013-07-23 21:06:00,74.0,71.0,29.55,SW,232,0.0,0.0,90,0.00,,,0.01,weatherlink.com 1.10,2013-07-24 01:06:00,
2013-07-23 21:37:00,73.8,71.0,29.55,SW,232,0.0,0.0,90,0.00,,,0.01,weatherlink.com 1.10,2013-07-24 01:37:00,
2013-07-23 22:22:00,73.3,71.0,29.55,WSW,250,0.0,0.0,91,0.00,,,0.01,weatherlink.com 1.10,2013-07-24 02:22:00,
2013-07-23 22:37:00,73.1,70.0,29.55,WSW,249,0.0,0.0,91,0.00,,,0.01,weatherlink.com 1.10,2013-07-24 02:37:00,
2013-07-23 22:52:00,72.8,70.0,29.55,WSW,249,0.0,0.0,91,0.00,,,0.01,weatherlink.com 1.10,2013-07-24 02:52:00,
2013-07-23 23:07:00,72.4,70.0,29.55,WSW,249,0.0,0.0,92,0.00,,,0.01,weatherlink.com 1.10,2013-07-24 03:07:00,
2013-07-23 23:22:00,71.9,70.0,29.56,WSW,249,0.0,0.0,93,0.00,,,0.01,weatherlink.com 1.10,2013-07-24 03:22:00,
2013-07-23 23:37:00,71.5,70.0,29.56,WSW,249,0.0,0.0,94,0.00,,,0.01,weatherlink.com 1.10,2013-07-24 03:37:00,
2013-07-23 23:52:00,71.4,70.0,29.56,WSW,249,0.0,0.0,94,0.00,,,0.01,weatherlink.com 1.10,2013-07-24 03:52:00,